Time;durP1;ratioP1;P1;durP2;ratioP2;P2;SDS_P1;SDS_P2;PMS_P1;PMS_P2;Temp;Humidity;BMP_temperature;BMP_pressure;BME280_temperature;BME280_humidity;BME280_pressure;Samples;Min_cycle;Max_cycle;Signal;HPM_P1;HPM_P2
2022/01/06 00:01:35;;;;;;;5.63;1.30;;;;;;;;;;5037636;28;20021;-60
2022/01/06 00:04:01;;;;;;;5.78;1.70;;;;;;;;;;5041008;28;20029;-56
2022/01/06 00:06:28;;;;;;;5.90;1.17;;;;;;;;;;5042132;28;20033;-60
2022/01/06 00:08:55;;;;;;;5.80;1.52;;;;;;;;;;5027375;28;20041;-60
2022/01/06 00:11:21;;;;;;;5.75;1.48;;;;;;;;;;5040537;28;20384;-60
2022/01/06 00:16:45;;;;;;;3.03;1.70;;;;;;;;;;5042402;28;20733;-62
2022/01/06 00:24:26;;;;;;;6.13;1.63;;;;;;;;;;5041356;28;20040;-60
2022/01/06 00:26:52;;;;;;;6.35;1.65;;;;;;;;;;5040608;28;20028;-61
2022/01/06 00:29:18;;;;;;;4.63;1.83;;;;;;;;;;5044317;28;20074;-61
2022/01/06 00:31:44;;;;;;;3.70;1.30;;;;;;;;;;5039972;28;20377;-60
2022/01/06 00:34:12;;;;;;;5.78;1.50;;;;;;;;;;5040094;28;20037;-61
2022/01/06 00:36:38;;;;;;;3.60;1.30;;;;;;;;;;5023974;28;20052;-61
2022/01/06 00:39:05;;;;;;;6.38;1.40;;;;;;;;;;5041671;28;20394;-60
2022/01/06 00:41:35;;;;;;;4.13;1.42;;;;;;;;;;5041836;28;20024;-60
2022/01/06 00:44:01;;;;;;;4.05;1.38;;;;;;;;;;5041637;28;20937;-59
2022/01/06 00:46:27;;;;;;;4.72;1.40;;;;;;;;;;5042331;28;20025;-58
2022/01/06 00:48:52;;;;;;;3.17;1.15;;;;;;;;;;5042414;28;20032;-61
2022/01/06 00:51:17;;;;;;;3.13;1.17;;;;;;;;;;5040523;28;20037;-62
2022/01/06 00:53:43;;;;;;;3.42;1.20;;;;;;;;;;5024950;28;20064;-59
2022/01/06 00:56:08;;;;;;;6.95;1.40;;;;;;;;;;5038582;28;20077;-60
2022/01/06 00:58:34;;;;;;;5.43;1.30;;;;;;;;;;5039658;28;20024;-56
2022/01/06 01:01:00;;;;;;;2.20;1.15;;;;;;;;;;5039793;28;20101;-62
2022/01/06 01:03:27;;;;;;;2.88;1.05;;;;;;;;;;5041506;28;20028;-59
2022/01/06 01:05:54;;;;;;;2.30;1.05;;;;;;;;;;5041273;28;20408;-57
2022/01/06 01:08:20;;;;;;;2.35;1.30;;;;;;;;;;5039641;28;20036;-60
2022/01/06 01:10:47;;;;;;;2.63;1.08;;;;;;;;;;5042171;28;20037;-59
2022/01/06 01:13:14;;;;;;;4.55;1.20;;;;;;;;;;5040563;28;20025;-61
2022/01/06 01:15:48;;;;;;;3.45;1.33;;;;;;;;;;5041835;28;20064;-60
2022/01/06 01:18:18;;;;;;;3.63;1.27;;;;;;;;;;5042293;28;20118;-60
2022/01/06 01:20:44;;;;;;;2.97;1.40;;;;;;;;;;5042101;28;20028;-59
2022/01/06 01:23:09;;;;;;;5.53;2.22;;;;;;;;;;5039662;28;20025;-59
2022/01/06 01:25:35;;;;;;;4.38;1.40;;;;;;;;;;5040988;28;20167;-61
2022/01/06 01:28:03;;;;;;;2.33;1.33;;;;;;;;;;5039694;28;20041;-61
2022/01/06 01:30:32;;;;;;;2.45;1.20;;;;;;;;;;5039172;28;20036;-61
2022/01/06 01:32:59;;;;;;;4.03;1.38;;;;;;;;;;5038462;28;20634;-60
2022/01/06 01:35:31;;;;;;;6.80;1.65;;;;;;;;;;5019436;28;20083;-61
2022/01/06 01:37:57;;;;;;;5.00;1.65;;;;;;;;;;5039776;28;20036;-60
2022/01/06 01:40:22;;;;;;;4.10;1.50;;;;;;;;;;5039962;28;20033;-60
2022/01/06 01:42:48;;;;;;;6.45;1.25;;;;;;;;;;5038636;28;20036;-57
2022/01/06 01:45:13;;;;;;;4.63;1.45;;;;;;;;;;5041619;28;20128;-56
2022/01/06 01:47:43;;;;;;;3.03;1.30;;;;;;;;;;5041432;28;20060;-61
2022/01/06 01:50:15;;;;;;;3.97;1.13;;;;;;;;;;5041606;28;20052;-61
2022/01/06 01:52:44;;;;;;;4.35;1.77;;;;;;;;;;5039399;28;20029;-59
2022/01/06 01:55:11;;;;;;;4.50;1.23;;;;;;;;;;5039077;28;20029;-56
2022/01/06 01:57:37;;;;;;;3.50;1.40;;;;;;;;;;5038893;28;20021;-59
2022/01/06 02:00:11;;;;;;;5.40;1.73;;;;;;;;;;5038624;28;20120;-56
2022/01/06 02:02:36;;;;;;;5.03;1.45;;;;;;;;;;5039102;28;20086;-61
2022/01/06 02:05:02;;;;;;;3.53;1.35;;;;;;;;;;5040377;28;20479;-61
2022/01/06 02:07:28;;;;;;;4.25;1.55;;;;;;;;;;5039237;28;20048;-60
2022/01/06 02:09:53;;;;;;;5.47;1.70;;;;;;;;;;5041510;28;20067;-60
2022/01/06 02:12:27;;;;;;;3.65;1.52;;;;;;;;;;5040221;28;20191;-61
2022/01/06 02:14:53;;;;;;;7.68;1.75;;;;;;;;;;5040637;28;20028;-59
2022/01/06 02:17:19;;;;;;;4.93;1.33;;;;;;;;;;5041099;28;20021;-59
2022/01/06 02:19:52;;;;;;;2.22;1.30;;;;;;;;;;5043771;28;20036;-61
2022/01/06 02:22:17;;;;;;;8.52;1.98;;;;;;;;;;5038751;28;20124;-60
2022/01/06 02:24:43;;;;;;;9.40;1.90;;;;;;;;;;5040642;28;20115;-56
2022/01/06 02:27:08;;;;;;;5.38;1.38;;;;;;;;;;5038708;28;20032;-61
2022/01/06 02:29:33;;;;;;;8.27;1.67;;;;;;;;;;5040935;28;20027;-60
2022/01/06 02:31:59;;;;;;;8.13;1.35;;;;;;;;;;5022493;28;20290;-58
2022/01/06 02:34:25;;;;;;;7.45;1.30;;;;;;;;;;5039581;28;20025;-60
2022/01/06 02:36:50;;;;;;;9.55;1.70;;;;;;;;;;5039837;28;20362;-60
2022/01/06 02:39:16;;;;;;;5.97;1.77;;;;;;;;;;5039997;28;20395;-60
2022/01/06 02:41:41;;;;;;;8.30;1.83;;;;;;;;;;5041898;28;20029;-61
2022/01/06 02:44:06;;;;;;;5.60;1.20;;;;;;;;;;5041283;28;20029;-63
2022/01/06 02:46:32;;;;;;;6.65;1.65;;;;;;;;;;5041721;28;20112;-60
2022/01/06 02:48:57;;;;;;;4.93;1.65;;;;;;;;;;5043936;28;20028;-56
2022/01/06 02:51:22;;;;;;;14.63;1.80;;;;;;;;;;5043790;28;20040;-59
2022/01/06 02:53:52;;;;;;;9.82;1.60;;;;;;;;;;5045983;28;20373;-61
2022/01/06 02:56:19;;;;;;;6.60;1.85;;;;;;;;;;5041156;28;20113;-61
2022/01/06 02:58:44;;;;;;;7.25;1.60;;;;;;;;;;5027631;28;20025;-60
2022/01/06 03:01:09;;;;;;;8.55;2.50;;;;;;;;;;5045568;28;20828;-60
2022/01/06 03:03:35;;;;;;;4.28;1.08;;;;;;;;;;5043917;28;20091;-59
2022/01/06 03:06:00;;;;;;;5.32;1.80;;;;;;;;;;5028330;28;20140;-59
2022/01/06 03:08:27;;;;;;;8.20;1.25;;;;;;;;;;5030598;28;20128;-59
2022/01/06 03:10:54;;;;;;;8.27;1.38;;;;;;;;;;5040037;28;20060;-57
2022/01/06 03:13:19;;;;;;;7.93;1.30;;;;;;;;;;5044363;28;20036;-60
2022/01/06 03:15:45;;;;;;;9.15;2.08;;;;;;;;;;5045100;28;20111;-57
2022/01/06 03:18:10;;;;;;;10.65;1.83;;;;;;;;;;5041903;28;20029;-60
2022/01/06 03:20:35;;;;;;;8.77;1.83;;;;;;;;;;5044043;28;20025;-59
2022/01/06 03:23:01;;;;;;;8.15;1.42;;;;;;;;;;5040459;28;20092;-60
2022/01/06 03:25:26;;;;;;;8.98;1.70;;;;;;;;;;5042710;28;20142;-54
2022/01/06 03:27:52;;;;;;;7.90;2.13;;;;;;;;;;5027317;28;20575;-61
2022/01/06 03:30:20;;;;;;;8.63;1.40;;;;;;;;;;5043502;28;20059;-60
2022/01/06 03:32:47;;;;;;;8.75;1.80;;;;;;;;;;5044703;28;20021;-59
2022/01/06 03:35:17;;;;;;;11.18;1.60;;;;;;;;;;5042581;28;20071;-62
2022/01/06 03:37:43;;;;;;;6.40;1.50;;;;;;;;;;5042297;28;20038;-58
2022/01/06 03:40:09;;;;;;;10.63;1.67;;;;;;;;;;5044048;28;20105;-62
2022/01/06 03:42:36;;;;;;;15.23;1.92;;;;;;;;;;5043742;28;20444;-60
2022/01/06 03:45:07;;;;;;;11.32;2.17;;;;;;;;;;5045264;28;20378;-57
2022/01/06 03:47:33;;;;;;;7.45;1.75;;;;;;;;;;5042209;28;20043;-60
2022/01/06 03:49:58;;;;;;;7.97;2.00;;;;;;;;;;5044145;28;20424;-59
2022/01/06 03:52:23;;;;;;;9.15;1.42;;;;;;;;;;5042225;28;20474;-62
2022/01/06 03:54:50;;;;;;;9.77;1.67;;;;;;;;;;5026441;28;20028;-59
2022/01/06 03:57:16;;;;;;;7.90;1.88;;;;;;;;;;5040383;28;20048;-60
2022/01/06 03:59:42;;;;;;;12.20;2.28;;;;;;;;;;5043605;28;20029;-58
2022/01/06 04:02:07;;;;;;;10.43;2.40;;;;;;;;;;5045043;28;20107;-60
2022/01/06 04:04:32;;;;;;;9.52;2.40;;;;;;;;;;5042357;28;20953;-61
2022/01/06 04:06:58;;;;;;;7.95;1.80;;;;;;;;;;5044292;28;20039;-56
2022/01/06 04:09:23;;;;;;;4.70;1.60;;;;;;;;;;5043154;28;20408;-61
2022/01/06 04:11:49;;;;;;;8.10;1.95;;;;;;;;;;5041704;28;20021;-59
2022/01/06 04:14:15;;;;;;;8.25;2.10;;;;;;;;;;5026370;28;20021;-61
2022/01/06 04:16:41;;;;;;;9.85;1.98;;;;;;;;;;5041176;28;21496;-60
2022/01/06 04:19:07;;;;;;;13.30;2.03;;;;;;;;;;5042622;28;20025;-60
2022/01/06 04:21:33;;;;;;;9.23;2.15;;;;;;;;;;5043921;28;20914;-60
2022/01/06 04:23:59;;;;;;;11.00;2.17;;;;;;;;;;5042861;28;20028;-62
2022/01/06 04:26:24;;;;;;;10.50;2.20;;;;;;;;;;5039274;28;20036;-60
2022/01/06 04:28:49;;;;;;;11.00;1.67;;;;;;;;;;5042758;28;20021;-61
2022/01/06 04:31:15;;;;;;;11.70;1.75;;;;;;;;;;5044382;28;20025;-61
2022/01/06 04:33:40;;;;;;;8.82;1.70;;;;;;;;;;5038929;28;20125;-59
2022/01/06 04:36:06;;;;;;;10.95;2.00;;;;;;;;;;5041255;28;20017;-61
2022/01/06 04:38:33;;;;;;;12.77;2.40;;;;;;;;;;5022852;28;21155;-60
2022/01/06 04:40:58;;;;;;;12.32;2.10;;;;;;;;;;5042816;28;20027;-61
2022/01/06 04:43:24;;;;;;;9.05;1.73;;;;;;;;;;5041117;28;20035;-61
2022/01/06 04:45:49;;;;;;;15.68;2.60;;;;;;;;;;5039522;28;20273;-60
2022/01/06 04:48:15;;;;;;;8.27;1.58;;;;;;;;;;5041104;28;20024;-60
2022/01/06 04:50:40;;;;;;;8.60;1.45;;;;;;;;;;5041513;28;20037;-60
2022/01/06 04:53:06;;;;;;;14.27;2.15;;;;;;;;;;5041974;28;20830;-61
2022/01/06 04:55:32;;;;;;;12.40;1.67;;;;;;;;;;5042012;28;20033;-60
2022/01/06 04:57:57;;;;;;;16.77;1.70;;;;;;;;;;5040367;28;20166;-60
2022/01/06 05:00:23;;;;;;;11.13;2.30;;;;;;;;;;5040207;28;20033;-60
2022/01/06 05:02:48;;;;;;;8.63;2.13;;;;;;;;;;5042023;28;20036;-60
2022/01/06 05:05:14;;;;;;;14.95;1.73;;;;;;;;;;5040752;28;20594;-61
2022/01/06 05:07:44;;;;;;;16.42;1.85;;;;;;;;;;5024545;28;20032;-56
2022/01/06 05:10:11;;;;;;;12.25;2.47;;;;;;;;;;5040041;28;20033;-55
2022/01/06 05:12:44;;;;;;;9.10;1.38;;;;;;;;;;5038232;28;20048;-56
2022/01/06 05:15:11;;;;;;;10.35;1.83;;;;;;;;;;5026955;28;20041;-54
2022/01/06 05:17:37;;;;;;;11.82;1.70;;;;;;;;;;5037790;28;20436;-58
2022/01/06 05:20:03;;;;;;;12.18;1.80;;;;;;;;;;5040361;28;20026;-59
2022/01/06 05:22:29;;;;;;;9.95;2.30;;;;;;;;;;5041031;28;20025;-58
2022/01/06 05:24:55;;;;;;;10.88;2.53;;;;;;;;;;5040430;28;20036;-57
2022/01/06 05:27:20;;;;;;;12.70;1.77;;;;;;;;;;5040458;28;20324;-59
2022/01/06 05:29:46;;;;;;;13.18;1.65;;;;;;;;;;5039440;28;20576;-59
2022/01/06 05:32:12;;;;;;;8.82;2.05;;;;;;;;;;5041578;28;20532;-57
2022/01/06 05:34:37;;;;;;;10.82;1.80;;;;;;;;;;5042357;28;20100;-53
2022/01/06 05:37:03;;;;;;;13.18;2.30;;;;;;;;;;5041103;28;20085;-58
2022/01/06 05:39:28;;;;;;;17.80;2.88;;;;;;;;;;5040940;28;20342;-57
2022/01/06 05:41:53;;;;;;;16.48;2.55;;;;;;;;;;5039269;28;20051;-58
2022/01/06 05:44:19;;;;;;;12.95;1.60;;;;;;;;;;5042108;28;20029;-58
2022/01/06 05:46:47;;;;;;;13.85;2.03;;;;;;;;;;5037924;28;20151;-58
2022/01/06 05:49:13;;;;;;;9.90;1.52;;;;;;;;;;5040699;28;20173;-58
2022/01/06 05:51:38;;;;;;;9.02;1.70;;;;;;;;;;5038662;28;20489;-58
2022/01/06 05:54:03;;;;;;;13.20;1.75;;;;;;;;;;5039849;28;20032;-54
2022/01/06 05:56:29;;;;;;;8.73;1.58;;;;;;;;;;5039895;28;20028;-57
2022/01/06 05:58:54;;;;;;;12.02;1.83;;;;;;;;;;5040432;28;20522;-58
2022/01/06 06:01:20;;;;;;;9.82;1.60;;;;;;;;;;5043128;28;20173;-58
2022/01/06 06:03:45;;;;;;;12.10;2.13;;;;;;;;;;5039650;28;20021;-57
2022/01/06 06:06:10;;;;;;;11.60;2.22;;;;;;;;;;5041708;28;20047;-58
2022/01/06 06:08:36;;;;;;;11.68;1.63;;;;;;;;;;5038532;28;20163;-57
2022/01/06 06:11:01;;;;;;;8.20;1.73;;;;;;;;;;5039693;28;20477;-57
2022/01/06 06:13:26;;;;;;;8.80;1.98;;;;;;;;;;5040733;28;20051;-57
2022/01/06 06:15:52;;;;;;;7.45;1.90;;;;;;;;;;5038635;28;20021;-53
2022/01/06 06:18:17;;;;;;;8.90;1.70;;;;;;;;;;5039269;28;20040;-58
2022/01/06 06:20:43;;;;;;;10.38;1.92;;;;;;;;;;5039514;28;20655;-59
2022/01/06 06:23:08;;;;;;;14.63;2.50;;;;;;;;;;5042177;28;20163;-57
2022/01/06 06:25:34;;;;;;;7.85;1.98;;;;;;;;;;5045640;28;20031;-53
2022/01/06 06:28:00;;;;;;;9.50;1.98;;;;;;;;;;5043173;28;20456;-56
2022/01/06 06:30:25;;;;;;;10.80;1.85;;;;;;;;;;5044400;28;20041;-53
2022/01/06 06:32:51;;;;;;;14.85;2.47;;;;;;;;;;5041368;28;20065;-53
2022/01/06 06:35:17;;;;;;;8.93;2.47;;;;;;;;;;5042452;28;20112;-57
2022/01/06 06:37:42;;;;;;;19.65;2.38;;;;;;;;;;5043037;28;20025;-58
2022/01/06 06:40:08;;;;;;;16.00;2.33;;;;;;;;;;5042869;28;20045;-58
2022/01/06 06:42:34;;;;;;;13.13;2.30;;;;;;;;;;5043178;28;20082;-56
2022/01/06 06:45:00;;;;;;;9.52;2.30;;;;;;;;;;5042311;28;20060;-57
2022/01/06 06:47:25;;;;;;;18.05;2.58;;;;;;;;;;5043206;28;20029;-58
2022/01/06 06:49:51;;;;;;;15.48;2.70;;;;;;;;;;5043602;28;20040;-56
2022/01/06 06:52:16;;;;;;;11.15;2.60;;;;;;;;;;5044003;28;20033;-56
2022/01/06 06:54:42;;;;;;;14.25;2.95;;;;;;;;;;5044090;28;20107;-55
2022/01/06 06:57:09;;;;;;;17.55;2.83;;;;;;;;;;5025382;28;20033;-55
2022/01/06 06:59:35;;;;;;;11.02;2.08;;;;;;;;;;5042369;28;20056;-56
2022/01/06 07:02:00;;;;;;;17.60;2.70;;;;;;;;;;5044410;28;20495;-57
2022/01/06 07:04:26;;;;;;;13.88;2.22;;;;;;;;;;5042896;28;20078;-57
2022/01/06 07:06:51;;;;;;;11.02;1.90;;;;;;;;;;5025554;28;20029;-58
2022/01/06 07:09:16;;;;;;;20.95;2.80;;;;;;;;;;5041816;28;20028;-58
2022/01/06 07:11:42;;;;;;;11.23;2.17;;;;;;;;;;5042204;28;20033;-54
2022/01/06 07:14:07;;;;;;;12.60;2.25;;;;;;;;;;5038946;28;21248;-58
2022/01/06 07:16:33;;;;;;;12.93;2.25;;;;;;;;;;5043539;28;20104;-51
2022/01/06 07:18:58;;;;;;;13.95;2.08;;;;;;;;;;5042197;28;20150;-58
2022/01/06 07:21:24;;;;;;;12.02;2.35;;;;;;;;;;5043335;28;20111;-58
2022/01/06 07:23:49;;;;;;;15.25;2.35;;;;;;;;;;5026288;28;20505;-56
2022/01/06 07:26:15;;;;;;;13.18;2.35;;;;;;;;;;5041427;28;20028;-57
2022/01/06 07:28:40;;;;;;;8.80;2.10;;;;;;;;;;5046103;28;21516;-58
2022/01/06 07:31:07;;;;;;;10.30;2.10;;;;;;;;;;5042750;28;20060;-58
2022/01/06 07:33:32;;;;;;;8.63;2.22;;;;;;;;;;5043697;28;20389;-57
2022/01/06 07:35:58;;;;;;;15.45;2.65;;;;;;;;;;5041242;28;20018;-58
2022/01/06 07:38:24;;;;;;;10.20;2.75;;;;;;;;;;5042464;28;20204;-52
2022/01/06 07:40:50;;;;;;;18.25;3.10;;;;;;;;;;5039810;28;20889;-54
2022/01/06 07:43:15;;;;;;;12.20;2.88;;;;;;;;;;5041092;28;20051;-57
2022/01/06 07:45:41;;;;;;;15.70;2.50;;;;;;;;;;5043759;28;20036;-58
2022/01/06 07:48:16;;;;;;;8.20;2.38;;;;;;;;;;5039809;28;20029;-58
2022/01/06 07:50:42;;;;;;;12.10;2.15;;;;;;;;;;5040868;28;20036;-57
2022/01/06 07:53:08;;;;;;;16.65;2.78;;;;;;;;;;5040474;28;20033;-57
2022/01/06 07:55:33;;;;;;;19.17;3.60;;;;;;;;;;5040674;28;20461;-57
2022/01/06 07:57:59;;;;;;;9.90;2.15;;;;;;;;;;5040528;28;20433;-58
2022/01/06 08:00:24;;;;;;;14.82;2.67;;;;;;;;;;5041098;28;20020;-58
2022/01/06 08:02:50;;;;;;;18.00;2.88;;;;;;;;;;5041130;28;20032;-57
2022/01/06 08:05:16;;;;;;;14.00;2.38;;;;;;;;;;5041247;28;20045;-58
2022/01/06 08:07:42;;;;;;;14.32;2.35;;;;;;;;;;5025774;28;20044;-55
2022/01/06 08:10:09;;;;;;;12.80;3.08;;;;;;;;;;5042608;28;20021;-53
2022/01/06 08:12:35;;;;;;;9.02;2.42;;;;;;;;;;5039829;28;20389;-56
2022/01/06 08:15:01;;;;;;;13.43;3.85;;;;;;;;;;5040430;28;20060;-57
2022/01/06 08:17:26;;;;;;;19.00;3.60;;;;;;;;;;5039862;28;20029;-57
2022/01/06 08:19:54;;;;;;;13.25;3.05;;;;;;;;;;5041399;28;20122;-57
2022/01/06 08:22:20;;;;;;;14.93;3.05;;;;;;;;;;5040923;28;20057;-57
2022/01/06 08:24:46;;;;;;;12.80;2.92;;;;;;;;;;5038892;28;20068;-56
2022/01/06 08:27:11;;;;;;;12.45;2.85;;;;;;;;;;5038674;28;20037;-56
2022/01/06 08:29:38;;;;;;;10.75;3.08;;;;;;;;;;5040620;28;20041;-58
2022/01/06 08:32:04;;;;;;;13.60;3.35;;;;;;;;;;5041146;28;20017;-58
2022/01/06 08:34:30;;;;;;;11.02;2.70;;;;;;;;;;5041213;28;20120;-55
2022/01/06 08:36:55;;;;;;;18.90;3.20;;;;;;;;;;5041734;28;20117;-54
2022/01/06 08:39:22;;;;;;;12.40;2.60;;;;;;;;;;5039489;28;20040;-56
2022/01/06 08:41:49;;;;;;;16.88;3.03;;;;;;;;;;5041729;28;20150;-58
2022/01/06 08:44:14;;;;;;;12.20;2.40;;;;;;;;;;5041490;28;20498;-58
2022/01/06 08:46:41;;;;;;;11.18;2.30;;;;;;;;;;5038904;28;20120;-58
2022/01/06 08:49:06;;;;;;;17.55;2.50;;;;;;;;;;5041133;28;20040;-58
2022/01/06 08:51:32;;;;;;;10.35;2.00;;;;;;;;;;5038858;28;20033;-54
2022/01/06 08:53:58;;;;;;;7.93;1.95;;;;;;;;;;5040957;28;20028;-56
2022/01/06 08:56:23;;;;;;;12.35;2.78;;;;;;;;;;5034763;28;20555;-58
2022/01/06 08:58:49;;;;;;;11.55;2.20;;;;;;;;;;5042972;28;20155;-57
2022/01/06 09:01:15;;;;;;;6.90;2.00;;;;;;;;;;5039742;28;20024;-58
2022/01/06 09:03:40;;;;;;;8.45;2.20;;;;;;;;;;5041628;28;20165;-58
2022/01/06 09:06:06;;;;;;;8.20;2.35;;;;;;;;;;5039417;28;20355;-58
2022/01/06 09:08:31;;;;;;;10.60;2.42;;;;;;;;;;5042807;28;20113;-57
2022/01/06 09:10:56;;;;;;;9.50;2.33;;;;;;;;;;5039461;28;20036;-57
2022/01/06 09:13:22;;;;;;;12.85;3.25;;;;;;;;;;5024763;28;20466;-57
2022/01/06 09:15:47;;;;;;;10.85;2.45;;;;;;;;;;5041228;28;20026;-56
2022/01/06 09:18:12;;;;;;;9.85;2.38;;;;;;;;;;5039772;28;20045;-56
2022/01/06 09:20:38;;;;;;;11.88;2.60;;;;;;;;;;5039620;28;20077;-55
2022/01/06 09:23:04;;;;;;;13.90;2.42;;;;;;;;;;5038653;28;20025;-56
2022/01/06 09:25:29;;;;;;;10.77;2.28;;;;;;;;;;5039586;28;20033;-53
2022/01/06 09:27:55;;;;;;;8.27;1.95;;;;;;;;;;5041892;28;20032;-58
2022/01/06 09:30:23;;;;;;;8.90;2.08;;;;;;;;;;5036654;28;20025;-58
2022/01/06 09:32:49;;;;;;;13.27;2.30;;;;;;;;;;5024452;28;20045;-58
2022/01/06 09:35:15;;;;;;;11.13;2.00;;;;;;;;;;5037699;28;20033;-58
2022/01/06 09:37:40;;;;;;;8.63;2.28;;;;;;;;;;5042112;28;20025;-58
2022/01/06 09:40:08;;;;;;;13.93;2.75;;;;;;;;;;5041600;28;20028;-59
2022/01/06 09:42:34;;;;;;;14.70;2.38;;;;;;;;;;5037967;28;20473;-58
2022/01/06 09:45:00;;;;;;;11.80;2.10;;;;;;;;;;5039579;28;20025;-58
2022/01/06 09:47:27;;;;;;;7.72;2.05;;;;;;;;;;5038079;28;20025;-57
2022/01/06 09:49:53;;;;;;;12.25;3.22;;;;;;;;;;5023903;28;20103;-51
2022/01/06 09:52:21;;;;;;;9.20;1.85;;;;;;;;;;5039571;28;20120;-58
2022/01/06 09:54:46;;;;;;;8.73;2.25;;;;;;;;;;5043379;28;20082;-57
2022/01/06 09:57:14;;;;;;;9.75;2.75;;;;;;;;;;5038415;28;20122;-58
2022/01/06 09:59:43;;;;;;;6.47;1.92;;;;;;;;;;5040754;28;20069;-56
2022/01/06 10:02:14;;;;;;;9.70;2.30;;;;;;;;;;5040353;28;20391;-57
2022/01/06 10:04:40;;;;;;;9.38;3.67;;;;;;;;;;5038900;28;20029;-57
2022/01/06 10:07:07;;;;;;;9.98;2.15;;;;;;;;;;5039573;28;20029;-58
2022/01/06 10:09:34;;;;;;;17.55;3.17;;;;;;;;;;5039283;28;20040;-57
2022/01/06 10:12:03;;;;;;;12.18;2.65;;;;;;;;;;5040307;28;20060;-57
2022/01/06 10:14:43;;;;;;;5.70;1.90;;;;;;;;;;5042373;28;20370;-58
2022/01/06 10:17:10;;;;;;;12.05;2.95;;;;;;;;;;5039173;28;20026;-56
2022/01/06 10:19:40;;;;;;;12.82;2.60;;;;;;;;;;5040658;28;20540;-58
2022/01/06 10:22:12;;;;;;;10.32;2.20;;;;;;;;;;5039339;28;20501;-57
2022/01/06 10:24:38;;;;;;;9.98;2.17;;;;;;;;;;5039627;28;20063;-57
2022/01/06 10:27:06;;;;;;;10.93;1.83;;;;;;;;;;5039593;28;20094;-58
2022/01/06 10:29:46;;;;;;;9.00;2.50;;;;;;;;;;5023006;28;20422;-58
2022/01/06 10:32:16;;;;;;;12.65;2.17;;;;;;;;;;5037134;28;20466;-57
2022/01/06 10:34:44;;;;;;;10.45;2.22;;;;;;;;;;5039822;28;20381;-57
2022/01/06 10:37:25;;;;;;;9.38;2.13;;;;;;;;;;5039419;28;20025;-57
2022/01/06 10:39:53;;;;;;;12.15;2.20;;;;;;;;;;5040160;28;20123;-57
2022/01/06 10:42:24;;;;;;;6.65;2.03;;;;;;;;;;5037322;28;20025;-57
2022/01/06 10:45:00;;;;;;;9.05;1.95;;;;;;;;;;5039962;28;20029;-56
2022/01/06 10:47:32;;;;;;;8.85;2.25;;;;;;;;;;5038613;28;20342;-58
2022/01/06 10:50:09;;;;;;;14.18;2.17;;;;;;;;;;5039516;28;20057;-56
2022/01/06 10:52:37;;;;;;;10.13;2.25;;;;;;;;;;5041364;28;20178;-57
2022/01/06 10:55:15;;;;;;;12.02;2.30;;;;;;;;;;5039678;28;20413;-55
2022/01/06 10:57:59;;;;;;;9.65;1.60;;;;;;;;;;5018683;28;20037;-56
2022/01/06 11:00:29;;;;;;;10.13;2.08;;;;;;;;;;5039852;28;20021;-56
2022/01/06 11:03:11;;;;;;;6.47;1.52;;;;;;;;;;5036637;28;20163;-58
2022/01/06 11:05:42;;;;;;;6.65;2.10;;;;;;;;;;5037475;28;20497;-58
2022/01/06 11:08:08;;;;;;;14.80;2.20;;;;;;;;;;5039313;28;20036;-56
2022/01/06 11:10:40;;;;;;;5.80;1.80;;;;;;;;;;5040692;28;20078;-59
2022/01/06 11:13:06;;;;;;;14.82;2.35;;;;;;;;;;5040583;28;20048;-59
2022/01/06 11:15:32;;;;;;;7.75;2.28;;;;;;;;;;5043105;28;20044;-59
2022/01/06 11:18:01;;;;;;;7.25;1.75;;;;;;;;;;5022752;28;20041;-56
2022/01/06 11:20:27;;;;;;;6.80;1.42;;;;;;;;;;5042792;28;20111;-58
2022/01/06 11:22:56;;;;;;;4.95;1.40;;;;;;;;;;5041626;28;20493;-56
2022/01/06 11:25:37;;;;;;;9.00;1.92;;;;;;;;;;5043060;28;20119;-57
2022/01/06 11:28:11;;;;;;;10.15;2.20;;;;;;;;;;5040700;28;20064;-58
2022/01/06 11:30:45;;;;;;;14.98;2.28;;;;;;;;;;5042526;28;20497;-59
2022/01/06 11:33:13;;;;;;;12.13;2.28;;;;;;;;;;5042766;28;20381;-60
2022/01/06 11:35:57;;;;;;;13.32;2.25;;;;;;;;;;5041378;28;20037;-59
2022/01/06 11:38:26;;;;;;;11.52;2.15;;;;;;;;;;5041237;28;20028;-56
2022/01/06 11:41:05;;;;;;;9.98;1.83;;;;;;;;;;5040947;28;20033;-59
2022/01/06 11:43:39;;;;;;;11.50;2.25;;;;;;;;;;5040998;28;20029;-59
2022/01/06 11:46:05;;;;;;;8.98;1.88;;;;;;;;;;5043487;28;20035;-59
2022/01/06 11:48:31;;;;;;;10.20;1.75;;;;;;;;;;5041612;28;20431;-58
2022/01/06 11:50:56;;;;;;;6.43;1.70;;;;;;;;;;5041447;28;20039;-57
2022/01/06 11:53:34;;;;;;;12.75;1.88;;;;;;;;;;5042772;28;20082;-55
2022/01/06 11:56:12;;;;;;;9.02;1.63;;;;;;;;;;5041386;28;20036;-57
2022/01/06 11:58:37;;;;;;;9.95;1.58;;;;;;;;;;5041812;28;20032;-59
2022/01/06 12:01:05;;;;;;;8.75;2.00;;;;;;;;;;5040459;28;20033;-59
2022/01/06 12:03:44;;;;;;;10.75;1.38;;;;;;;;;;5040695;28;20037;-56
2022/01/06 12:06:25;;;;;;;10.05;1.65;;;;;;;;;;5039128;28;20037;-58
2022/01/06 12:08:51;;;;;;;7.00;1.63;;;;;;;;;;5039466;28;20422;-57
2022/01/06 12:11:26;;;;;;;11.57;1.98;;;;;;;;;;5025105;28;20473;-59
2022/01/06 12:13:53;;;;;;;12.32;1.63;;;;;;;;;;5040771;28;20055;-56
2022/01/06 12:16:38;;;;;;;12.07;2.00;;;;;;;;;;5041819;28;20033;-58
2022/01/06 12:19:24;;;;;;;9.27;1.63;;;;;;;;;;5042019;28;20059;-59
2022/01/06 12:21:50;;;;;;;13.35;2.42;;;;;;;;;;5039478;28;20602;-55
2022/01/06 12:24:16;;;;;;;10.43;2.85;;;;;;;;;;5039354;28;20128;-58
2022/01/06 12:26:42;;;;;;;11.15;1.95;;;;;;;;;;5042268;28;20062;-58
2022/01/06 12:29:14;;;;;;;9.13;1.70;;;;;;;;;;5040261;28;21404;-57
2022/01/06 12:31:41;;;;;;;10.75;2.03;;;;;;;;;;5039316;28;20112;-56
2022/01/06 12:34:09;;;;;;;7.05;1.40;;;;;;;;;;5041433;28;20028;-58
2022/01/06 12:36:37;;;;;;;7.90;1.98;;;;;;;;;;5029008;28;20044;-53
2022/01/06 12:39:22;;;;;;;8.40;1.70;;;;;;;;;;5023593;28;20468;-56
2022/01/06 12:41:49;;;;;;;8.38;1.70;;;;;;;;;;5027239;28;20028;-57
2022/01/06 12:44:19;;;;;;;11.52;2.38;;;;;;;;;;5039655;28;20111;-55
2022/01/06 12:46:45;;;;;;;10.43;1.88;;;;;;;;;;5022998;28;20836;-57
2022/01/06 12:49:12;;;;;;;9.30;1.77;;;;;;;;;;5040075;28;20076;-56
2022/01/06 12:51:40;;;;;;;8.05;1.67;;;;;;;;;;5042011;28;20037;-56
2022/01/06 12:54:11;;;;;;;4.18;1.45;;;;;;;;;;5040928;28;20040;-57
2022/01/06 12:56:41;;;;;;;6.28;1.55;;;;;;;;;;5040949;28;20045;-57
2022/01/06 12:59:17;;;;;;;9.00;1.50;;;;;;;;;;5039202;28;20096;-58
2022/01/06 13:01:44;;;;;;;8.93;1.50;;;;;;;;;;5040500;28;20021;-57
2022/01/06 13:04:11;;;;;;;9.48;1.75;;;;;;;;;;5040967;28;20036;-58
2022/01/06 13:06:40;;;;;;;9.93;1.45;;;;;;;;;;5038981;28;20037;-56
2022/01/06 13:09:16;;;;;;;8.60;2.13;;;;;;;;;;5040249;28;20115;-56
2022/01/06 13:11:52;;;;;;;4.22;1.83;;;;;;;;;;5039406;28;20048;-56
2022/01/06 13:14:31;;;;;;;8.43;1.30;;;;;;;;;;5040384;28;20086;-56
2022/01/06 13:17:23;;;;;;;12.10;1.40;;;;;;;;;;5040039;28;20108;-58
2022/01/06 13:19:53;;;;;;;6.10;1.25;;;;;;;;;;5040960;28;20443;-58
2022/01/06 13:22:48;;;;;;;12.07;1.50;;;;;;;;;;5041608;28;20115;-60
2022/01/06 13:25:16;;;;;;;10.50;1.83;;;;;;;;;;5038887;28;20076;-54
2022/01/06 13:28:12;;;;;;;11.50;1.40;;;;;;;;;;5040374;28;20034;-58
2022/01/06 13:30:39;;;;;;;8.52;1.50;;;;;;;;;;5036524;28;20175;-58
2022/01/06 13:33:10;;;;;;;9.50;1.60;;;;;;;;;;5039155;28;20081;-54
2022/01/06 13:35:51;;;;;;;5.28;1.67;;;;;;;;;;5039295;28;20467;-57
2022/01/06 13:38:18;;;;;;;7.25;1.38;;;;;;;;;;5042390;28;20036;-57
2022/01/06 13:40:55;;;;;;;6.38;1.80;;;;;;;;;;5037190;28;20028;-58
2022/01/06 13:43:22;;;;;;;10.88;1.70;;;;;;;;;;5036216;28;20051;-58
2022/01/06 13:45:50;;;;;;;11.68;2.33;;;;;;;;;;5041255;28;20037;-56
2022/01/06 13:51:05;;;;;;;11.77;1.83;;;;;;;;;;5038548;28;20065;-58
2022/01/06 13:53:53;;;;;;;7.95;1.58;;;;;;;;;;5037682;28;20058;-53
2022/01/06 13:56:27;;;;;;;5.22;1.50;;;;;;;;;;5040963;28;20033;-57
2022/01/06 13:58:53;;;;;;;11.88;2.28;;;;;;;;;;5035856;28;20395;-57
2022/01/06 14:01:21;;;;;;;11.95;1.50;;;;;;;;;;5041986;28;20105;-58
2022/01/06 14:03:47;;;;;;;8.35;1.50;;;;;;;;;;5039268;28;20485;-57
2022/01/06 14:06:17;;;;;;;8.50;1.48;;;;;;;;;;5040450;28;20079;-57
2022/01/06 14:08:43;;;;;;;7.55;1.20;;;;;;;;;;5035776;28;20049;-57
2022/01/06 14:11:12;;;;;;;13.82;2.00;;;;;;;;;;5039550;28;20067;-57
2022/01/06 14:13:38;;;;;;;10.60;1.92;;;;;;;;;;5038704;28;20469;-58
2022/01/06 14:16:05;;;;;;;9.48;1.73;;;;;;;;;;5037501;28;20020;-58
2022/01/06 14:18:30;;;;;;;11.48;1.73;;;;;;;;;;5038404;28;20096;-57
2022/01/06 14:20:56;;;;;;;9.32;1.80;;;;;;;;;;5040759;28;20112;-59
2022/01/06 14:23:23;;;;;;;12.57;1.90;;;;;;;;;;5040882;28;20026;-57
2022/01/06 14:25:49;;;;;;;11.65;1.52;;;;;;;;;;5039737;28;20021;-57
2022/01/06 14:28:15;;;;;;;5.50;1.88;;;;;;;;;;5040389;28;20128;-54
2022/01/06 14:30:41;;;;;;;8.32;1.90;;;;;;;;;;5037466;28;20445;-56
2022/01/06 14:33:07;;;;;;;10.13;1.75;;;;;;;;;;5041264;28;20396;-57
2022/01/06 14:35:34;;;;;;;10.77;1.85;;;;;;;;;;5038468;28;20017;-56
2022/01/06 14:38:00;;;;;;;6.10;1.95;;;;;;;;;;5038856;28;20061;-59
2022/01/06 14:40:26;;;;;;;6.97;1.55;;;;;;;;;;5037335;28;20095;-58
2022/01/06 14:42:51;;;;;;;9.35;1.58;;;;;;;;;;5039067;28;20330;-56
2022/01/06 14:45:17;;;;;;;7.25;1.35;;;;;;;;;;5042031;28;20036;-58
2022/01/06 14:47:42;;;;;;;9.77;2.17;;;;;;;;;;5041096;28;20040;-53
2022/01/06 14:50:10;;;;;;;9.18;1.70;;;;;;;;;;5042734;28;20029;-58
2022/01/06 14:52:40;;;;;;;12.55;1.55;;;;;;;;;;5040849;28;20024;-58